createdAt,value
2023-01-19T00:01:00.728Z,40.60
2023-01-19T00:03:27.887Z,42.87
2023-01-19T00:05:55.163Z,39.80
2023-01-19T00:08:22.410Z,37.50
2023-01-19T00:10:53.322Z,37.77
2023-01-19T00:13:20.557Z,38.60
2023-01-19T00:15:50.860Z,41.73
2023-01-19T00:18:18.122Z,42.43
2023-01-19T00:20:48.414Z,40.60
2023-01-19T00:23:16.374Z,37.07
2023-01-19T00:25:43.817Z,42.40
2023-01-19T00:28:12.190Z,37.97
2023-01-19T00:30:40.156Z,46.00
2023-01-19T00:33:08.945Z,38.50
2023-01-19T00:35:36.594Z,43.87
2023-01-19T00:38:04.059Z,38.30
2023-01-19T00:40:31.419Z,40.60
2023-01-19T00:43:00.245Z,39.20
2023-01-19T00:45:27.603Z,44.37
2023-01-19T00:47:57.275Z,42.93
2023-01-19T00:50:25.366Z,40.93
2023-01-19T00:52:53.555Z,40.13
2023-01-19T00:55:23.853Z,34.80
2023-01-19T00:57:51.068Z,40.90
2023-01-19T01:00:19.901Z,34.27
2023-01-19T01:02:47.680Z,41.83
2023-01-19T01:05:15.066Z,33.03
2023-01-19T01:07:44.558Z,38.17
2023-01-19T01:10:12.938Z,35.37
2023-01-19T01:12:41.310Z,35.63
2023-01-19T01:15:22.917Z,34.50
2023-01-19T01:17:53.112Z,33.20
2023-01-19T01:20:21.629Z,33.87
2023-01-19T01:22:50.202Z,32.83
2023-01-19T01:25:18.737Z,33.57
2023-01-19T01:27:46.350Z,32.87
2023-01-19T01:30:14.991Z,34.17
2023-01-19T01:32:42.740Z,32.70
2023-01-19T01:35:10.205Z,32.63
2023-01-19T01:37:37.914Z,30.90
2023-01-19T01:40:05.770Z,31.23
2023-01-19T01:42:33.658Z,30.17
2023-01-19T01:45:02.186Z,31.27
2023-01-19T01:47:32.149Z,27.80
2023-01-19T01:50:22.365Z,29.23
2023-01-19T01:53:07.135Z,30.73
2023-01-19T01:55:36.658Z,25.90
2023-01-19T01:58:04.618Z,30.47
2023-01-19T02:00:51.999Z,27.80
2023-01-19T02:03:19.403Z,30.93
2023-01-19T02:05:46.789Z,29.53
2023-01-19T02:08:35.372Z,33.33
2023-01-19T02:11:21.995Z,32.37
2023-01-19T02:13:49.637Z,28.80
2023-01-19T02:16:17.614Z,32.87
2023-01-19T02:18:45.333Z,28.43
2023-01-19T02:21:20.097Z,30.47
2023-01-19T02:23:54.220Z,29.50
2023-01-19T02:26:21.402Z,22.53
2023-01-19T02:28:54.327Z,29.77
2023-01-19T02:31:21.762Z,26.50
2023-01-19T02:33:49.103Z,28.87
2023-01-19T02:36:17.341Z,31.07
2023-01-19T02:38:45.999Z,27.60
2023-01-19T02:41:16.014Z,32.67
2023-01-19T02:43:43.579Z,33.97
2023-01-19T02:46:10.889Z,26.73
2023-01-19T02:48:38.056Z,29.53
2023-01-19T02:51:11.849Z,26.27
2023-01-19T02:53:40.144Z,28.80
2023-01-19T02:56:24.831Z,26.97
2023-01-19T02:58:51.972Z,27.50
2023-01-19T03:01:28.279Z,31.57
2023-01-19T03:03:59.306Z,29.23
2023-01-19T03:06:33.673Z,25.83
2023-01-19T03:09:11.534Z,27.27
2023-01-19T03:11:40.503Z,25.50
2023-01-19T03:14:13.046Z,27.67
2023-01-19T03:16:43.314Z,28.40
2023-01-19T03:19:10.464Z,29.50
2023-01-19T03:21:39.177Z,27.40
2023-01-19T03:24:07.923Z,29.57
2023-01-19T03:26:44.072Z,31.60
2023-01-19T03:29:12.975Z,30.90
2023-01-19T03:31:41.400Z,32.23
2023-01-19T03:34:10.040Z,28.60
2023-01-19T03:36:38.929Z,31.53
2023-01-19T03:39:07.602Z,29.33
2023-01-19T03:41:35.300Z,33.93
2023-01-19T03:44:03.521Z,30.57
2023-01-19T03:46:31.330Z,34.47
2023-01-19T03:48:58.849Z,35.40
2023-01-19T03:51:26.266Z,30.43
2023-01-19T03:53:53.549Z,28.53
2023-01-19T03:56:22.256Z,30.20
2023-01-19T03:58:49.483Z,35.37
2023-01-19T04:01:17.698Z,34.27
2023-01-19T04:03:45.162Z,36.03
2023-01-19T04:06:12.306Z,36.03
2023-01-19T04:08:40.715Z,28.57
2023-01-19T04:11:08.335Z,33.90
2023-01-19T04:13:35.585Z,34.37
2023-01-19T04:16:03.659Z,36.97
2023-01-19T04:18:33.691Z,30.50
2023-01-19T04:21:05.594Z,34.40
2023-01-19T04:23:33.740Z,29.73
2023-01-19T04:26:01.736Z,31.37
2023-01-19T04:28:28.910Z,29.70
2023-01-19T04:30:56.214Z,37.90
2023-01-19T04:33:23.466Z,29.80
2023-01-19T04:35:53.476Z,36.73
2023-01-19T04:38:21.500Z,34.13
2023-01-19T04:40:50.517Z,32.90
2023-01-19T04:43:17.706Z,30.50
2023-01-19T04:45:44.884Z,35.77
2023-01-19T04:48:12.557Z,31.23
2023-01-19T04:50:40.122Z,34.63
2023-01-19T04:53:07.280Z,32.27
2023-01-19T04:55:34.735Z,29.27
2023-01-19T04:58:01.945Z,28.20
2023-01-19T05:00:29.176Z,30.73
2023-01-19T05:02:56.461Z,28.57
2023-01-19T05:05:24.118Z,27.70
2023-01-19T05:07:51.297Z,26.03
2023-01-19T05:10:18.640Z,30.43
2023-01-19T05:12:46.211Z,27.43
2023-01-19T05:15:13.555Z,24.03
2023-01-19T05:17:40.818Z,24.83
2023-01-19T05:20:08.480Z,26.37
2023-01-19T05:22:35.789Z,26.17
2023-01-19T05:25:02.985Z,26.43
2023-01-19T05:27:30.156Z,25.93
2023-01-19T05:29:57.400Z,26.43
2023-01-19T05:32:24.626Z,23.60
2023-01-19T05:34:51.791Z,28.97
2023-01-19T05:37:19.285Z,34.20
2023-01-19T05:39:46.473Z,27.93
2023-01-19T05:42:13.735Z,32.90
2023-01-19T05:44:40.952Z,30.30
2023-01-19T05:47:08.206Z,31.93
2023-01-19T05:49:35.939Z,32.30
2023-01-19T05:52:03.481Z,29.07
2023-01-19T05:54:30.687Z,25.23
2023-01-19T05:56:58.299Z,24.10
2023-01-19T05:59:25.587Z,26.00
2023-01-19T06:01:53.749Z,27.93
2023-01-19T06:04:21.488Z,28.30
2023-01-19T06:06:49.160Z,23.30
2023-01-19T06:09:17.352Z,26.10
2023-01-19T06:11:46.347Z,27.93
2023-01-19T06:14:13.673Z,30.30
2023-01-19T06:16:40.980Z,27.10
2023-01-19T06:19:08.155Z,25.70
2023-01-19T06:21:35.477Z,26.53
2023-01-19T06:24:03.540Z,28.03
2023-01-19T06:26:30.748Z,28.30
2023-01-19T06:28:58.161Z,27.63
2023-01-19T06:31:25.425Z,30.27
2023-01-19T06:33:52.662Z,28.63
2023-01-19T06:36:19.874Z,30.57
2023-01-19T06:38:47.016Z,22.20
2023-01-19T06:41:14.415Z,24.73
2023-01-19T06:43:41.593Z,22.00
2023-01-19T06:46:08.866Z,27.83
2023-01-19T06:48:36.072Z,25.90
2023-01-19T06:51:03.231Z,29.20
2023-01-19T06:53:30.456Z,34.13
2023-01-19T06:56:01.977Z,34.23
2023-01-19T06:58:30.633Z,36.43
2023-01-19T07:01:02.471Z,45.53
2023-01-19T07:03:29.958Z,60.60
2023-01-19T07:05:57.154Z,55.70
2023-01-19T07:08:24.684Z,49.53
2023-01-19T07:11:23.584Z,37.20
2023-01-19T07:13:40.035Z,36.80
2023-01-19T07:16:08.255Z,34.53
2023-01-19T07:18:35.775Z,35.23
2023-01-19T07:21:03.041Z,28.33
2023-01-19T07:23:30.369Z,24.30
2023-01-19T07:26:01.771Z,22.57
2023-01-19T07:28:29.681Z,22.50
2023-01-19T07:30:57.837Z,31.47
2023-01-19T07:33:26.186Z,29.00
2023-01-19T07:35:53.767Z,28.30
2023-01-19T07:38:21.208Z,27.73
2023-01-19T07:40:48.538Z,35.90
2023-01-19T07:43:16.508Z,37.50
2023-01-19T07:45:45.066Z,32.57
2023-01-19T07:48:12.388Z,32.87
2023-01-19T07:50:39.642Z,33.13
2023-01-19T07:53:07.935Z,32.20
2023-01-19T07:55:35.321Z,32.67
2023-01-19T07:58:06.526Z,33.17
2023-01-19T08:00:34.236Z,25.37
2023-01-19T08:03:02.274Z,25.30
2023-01-19T08:05:29.971Z,29.17
2023-01-19T08:07:57.921Z,27.03
2023-01-19T08:10:26.744Z,20.67
2023-01-19T08:12:54.610Z,23.93
2023-01-19T08:15:25.393Z,22.80
2023-01-19T08:17:59.196Z,22.90
2023-01-19T08:20:27.120Z,21.27
2023-01-19T08:23:01.418Z,23.83
2023-01-19T08:25:45.114Z,22.50
2023-01-19T08:28:16.775Z,23.27
2023-01-19T08:30:45.048Z,20.27
2023-01-19T08:33:13.174Z,25.47
2023-01-19T08:35:41.534Z,30.17
2023-01-19T08:38:09.931Z,27.73
2023-01-19T08:40:38.528Z,23.50
2023-01-19T08:43:07.921Z,23.83
2023-01-19T08:45:36.032Z,27.30
2023-01-19T08:48:03.659Z,28.93
2023-01-19T08:50:32.112Z,25.00
2023-01-19T08:53:00.453Z,36.93
2023-01-19T08:55:28.450Z,36.47
2023-01-19T08:57:58.009Z,26.23
2023-01-19T09:00:25.503Z,25.47
2023-01-19T09:02:52.723Z,27.70
2023-01-19T09:05:20.253Z,23.53
2023-01-19T09:07:51.797Z,29.07
2023-01-19T09:10:19.435Z,26.50
2023-01-19T09:12:46.821Z,30.50
2023-01-19T09:15:14.333Z,31.03
2023-01-19T09:17:44.339Z,23.80
2023-01-19T09:20:11.696Z,25.43
2023-01-19T09:22:39.659Z,28.07
2023-01-19T09:25:08.138Z,26.10
2023-01-19T09:27:35.421Z,28.73
2023-01-19T09:30:02.826Z,27.40
2023-01-19T09:32:30.046Z,30.67
2023-01-19T09:34:57.562Z,28.23
2023-01-19T09:37:24.725Z,28.47
2023-01-19T09:39:52.034Z,29.47
2023-01-19T09:42:22.512Z,29.97
2023-01-19T09:44:53.220Z,29.77
2023-01-19T09:47:24.006Z,28.33
2023-01-19T09:50:02.051Z,31.00
2023-01-19T09:52:29.981Z,29.93
2023-01-19T09:54:58.583Z,32.97
2023-01-19T09:57:27.389Z,29.63
2023-01-19T09:59:59.529Z,29.80
2023-01-19T10:02:59.363Z,38.30
2023-01-19T10:05:26.741Z,28.97
2023-01-19T10:07:58.210Z,30.53
2023-01-19T10:10:27.228Z,30.43
2023-01-19T10:12:54.397Z,38.13
2023-01-19T10:15:33.611Z,34.27
2023-01-19T10:18:06.819Z,39.77
2023-01-19T10:20:37.709Z,35.77
2023-01-19T10:23:06.518Z,34.30
2023-01-19T10:25:34.091Z,34.10
2023-01-19T10:28:01.737Z,32.80
2023-01-19T10:30:30.468Z,31.43
2023-01-19T10:32:57.749Z,33.07
2023-01-19T10:35:25.498Z,28.83
2023-01-19T10:38:02.826Z,28.07
2023-01-19T10:40:50.700Z,36.97
2023-01-19T10:43:36.815Z,28.30
2023-01-19T10:46:08.141Z,30.53
2023-01-19T10:48:42.555Z,29.10
2023-01-19T10:51:11.067Z,30.97
2023-01-19T10:53:38.800Z,28.37
2023-01-19T10:56:13.164Z,34.47
2023-01-19T10:58:40.632Z,31.57
2023-01-19T11:01:18.866Z,31.97
2023-01-19T11:03:46.159Z,37.43
2023-01-19T11:06:16.076Z,34.53
2023-01-19T11:08:44.381Z,32.47
2023-01-19T11:11:14.895Z,33.40
2023-01-19T11:13:43.001Z,30.30
2023-01-19T11:16:25.532Z,35.47
2023-01-19T11:18:53.396Z,35.00
2023-01-19T11:21:24.748Z,35.30
2023-01-19T11:23:54.706Z,29.07
2023-01-19T11:26:33.766Z,31.33
2023-01-19T11:29:02.823Z,28.17
2023-01-19T11:31:32.844Z,34.73
2023-01-19T11:34:01.430Z,34.33
2023-01-19T11:36:30.276Z,35.07
2023-01-19T11:39:04.061Z,36.90
2023-01-19T11:41:33.070Z,34.67
2023-01-19T11:44:19.011Z,38.40
2023-01-19T11:46:49.976Z,34.93
2023-01-19T11:49:30.518Z,37.37
2023-01-19T11:52:05.039Z,30.90
2023-01-19T11:54:46.383Z,33.43
2023-01-19T11:57:16.008Z,34.23
2023-01-19T11:59:43.411Z,33.57
2023-01-19T12:02:19.856Z,35.93
2023-01-19T12:04:48.085Z,37.87
2023-01-19T12:07:18.946Z,34.47
2023-01-19T12:09:48.325Z,36.90
2023-01-19T12:12:21.804Z,37.13
2023-01-19T12:15:01.140Z,32.40
2023-01-19T12:17:35.900Z,33.93
2023-01-19T12:20:21.806Z,36.43
2023-01-19T12:22:56.550Z,35.90
2023-01-19T12:25:26.931Z,38.03
2023-01-19T12:27:54.546Z,33.37
2023-01-19T12:30:26.471Z,33.77
2023-01-19T12:33:13.724Z,36.93
2023-01-19T12:35:56.995Z,39.50
2023-01-19T12:38:34.315Z,35.27
2023-01-19T12:41:24.796Z,38.30
2023-01-19T12:44:19.128Z,37.67
2023-01-19T12:46:47.018Z,37.03
2023-01-19T12:49:20.605Z,39.57
2023-01-19T12:51:48.632Z,43.77
2023-01-19T12:54:32.677Z,46.70
2023-01-19T12:57:02.379Z,43.80
2023-01-19T12:59:31.466Z,44.47
2023-01-19T13:02:17.629Z,44.87
2023-01-19T13:05:03.492Z,43.57
2023-01-19T13:07:30.712Z,46.67
2023-01-19T13:09:57.911Z,48.17
2023-01-19T13:12:25.701Z,47.60
2023-01-19T13:15:12.881Z,46.53
2023-01-19T13:17:50.030Z,47.90
2023-01-19T13:20:24.562Z,58.10
2023-01-19T13:22:53.111Z,77.70
2023-01-19T13:25:31.358Z,66.40
2023-01-19T13:27:58.624Z,51.23
2023-01-19T13:30:27.384Z,49.63
2023-01-19T13:32:59.965Z,51.00
2023-01-19T13:35:27.207Z,58.23
2023-01-19T13:37:55.693Z,64.13
2023-01-19T13:40:24.954Z,62.53
2023-01-19T13:42:53.653Z,53.47
2023-01-19T13:45:37.179Z,51.17
2023-01-19T13:48:08.324Z,46.70
2023-01-19T13:50:38.608Z,63.67
2023-01-19T13:53:19.269Z,67.50
2023-01-19T13:55:47.988Z,90.70
2023-01-19T13:58:22.402Z,70.97
2023-01-19T14:00:49.686Z,52.13
2023-01-19T14:03:18.491Z,54.80
2023-01-19T14:05:46.103Z,46.83
2023-01-19T14:08:15.075Z,53.70
2023-01-19T14:10:48.571Z,62.63
2023-01-19T14:13:17.326Z,63.57
2023-01-19T14:15:45.391Z,61.73
2023-01-19T14:18:18.871Z,62.60
2023-01-19T14:21:12.343Z,57.33
2023-01-19T14:23:39.575Z,64.93
2023-01-19T14:26:07.610Z,70.63
2023-01-19T14:28:44.087Z,79.00
2023-01-19T14:31:28.597Z,68.23
2023-01-19T14:33:58.598Z,73.60
2023-01-19T14:36:25.941Z,80.37
2023-01-19T14:38:54.042Z,90.40
2023-01-19T14:41:30.743Z,96.10
2023-01-19T14:43:58.807Z,100.13
2023-01-19T14:46:26.804Z,91.73
2023-01-19T14:48:56.468Z,91.40
2023-01-19T14:51:24.947Z,124.20
2023-01-19T14:53:53.526Z,119.93
2023-01-19T14:56:28.412Z,108.20
2023-01-19T14:59:00.164Z,91.67
2023-01-19T15:01:28.635Z,88.20
2023-01-19T15:03:56.977Z,92.70
2023-01-19T15:06:24.967Z,82.30
2023-01-19T15:08:53.545Z,81.87
2023-01-19T15:11:36.176Z,76.27
2023-01-19T15:14:03.481Z,99.07
2023-01-19T15:16:32.918Z,95.60
2023-01-19T15:19:00.830Z,85.10
2023-01-19T15:21:28.096Z,101.77
2023-01-19T15:23:55.741Z,99.23
2023-01-19T15:26:24.327Z,125.67
2023-01-19T15:28:51.570Z,124.20
2023-01-19T15:31:20.605Z,108.70
2023-01-19T15:33:48.135Z,110.60
2023-01-19T15:36:18.053Z,104.90
2023-01-19T15:38:45.532Z,108.37
2023-01-19T15:41:12.781Z,120.70
2023-01-19T15:43:40.004Z,119.03
2023-01-19T15:46:07.546Z,127.70
2023-01-19T15:48:34.939Z,116.77
2023-01-19T15:51:02.093Z,121.10
2023-01-19T15:53:30.537Z,121.67
2023-01-19T15:55:57.873Z,115.37
2023-01-19T15:58:25.395Z,125.83
2023-01-19T16:00:57.132Z,138.43
2023-01-19T16:03:24.741Z,145.93
2023-01-19T16:05:52.101Z,124.23
2023-01-19T16:08:19.499Z,122.53
2023-01-19T16:10:46.770Z,131.10
2023-01-19T16:13:13.966Z,238.47
2023-01-19T16:15:42.458Z,173.20
2023-01-19T16:18:09.767Z,179.77
2023-01-19T16:20:37.006Z,162.53
2023-01-19T16:23:19.848Z,152.60
2023-01-19T16:25:56.270Z,177.83
2023-01-19T16:28:23.696Z,206.67
2023-01-19T16:30:51.758Z,243.60
2023-01-19T16:33:19.217Z,239.73
2023-01-19T16:35:46.577Z,210.57
2023-01-19T16:38:13.754Z,181.87
2023-01-19T16:40:40.952Z,187.97
2023-01-19T16:43:08.314Z,290.10
2023-01-19T16:45:35.564Z,324.43
2023-01-19T16:48:02.808Z,303.73
2023-01-19T16:50:29.974Z,279.53
2023-01-19T16:52:58.078Z,266.97
2023-01-19T16:55:25.321Z,247.03
2023-01-19T16:57:52.586Z,178.73
2023-01-19T17:00:19.950Z,214.33
2023-01-19T17:02:47.318Z,177.00
2023-01-19T17:05:14.630Z,149.43
2023-01-19T17:07:41.974Z,148.33
2023-01-19T17:10:10.003Z,133.33
2023-01-19T17:12:37.430Z,130.63
2023-01-19T17:15:04.798Z,130.03
2023-01-19T17:17:32.133Z,128.37
2023-01-19T17:20:00.266Z,138.23
2023-01-19T17:22:27.419Z,178.13
2023-01-19T17:24:54.671Z,157.63
2023-01-19T17:27:21.871Z,152.60
2023-01-19T17:29:50.137Z,140.17
2023-01-19T17:32:17.361Z,143.53
2023-01-19T17:34:46.675Z,119.40
2023-01-19T17:37:13.992Z,121.17
2023-01-19T17:39:41.206Z,126.60
2023-01-19T17:42:08.444Z,112.47
2023-01-19T17:44:35.626Z,149.10
2023-01-19T17:47:03.114Z,182.37
2023-01-19T17:49:30.333Z,179.90
2023-01-19T17:51:57.528Z,182.57
2023-01-19T17:54:24.719Z,169.77
2023-01-19T17:56:52.010Z,142.63
2023-01-19T17:59:19.292Z,128.80
2023-01-19T18:01:46.790Z,119.97
2023-01-19T18:04:14.042Z,124.53
2023-01-19T18:06:41.270Z,139.03
2023-01-19T18:09:08.529Z,130.53
2023-01-19T18:11:36.258Z,126.37
2023-01-19T18:14:03.537Z,139.27
2023-01-19T18:16:31.028Z,129.27
2023-01-19T18:18:58.663Z,138.47
2023-01-19T18:21:30.521Z,132.80
2023-01-19T18:24:02.212Z,143.97
2023-01-19T18:26:30.028Z,150.20
2023-01-19T18:28:57.751Z,196.27
2023-01-19T18:31:25.484Z,191.87
2023-01-19T18:33:53.107Z,188.27
2023-01-19T18:36:20.416Z,179.80
2023-01-19T18:38:48.119Z,222.63
2023-01-19T18:41:16.234Z,354.67
2023-01-19T18:43:43.497Z,369.60
2023-01-19T18:46:11.487Z,330.30
2023-01-19T18:48:39.352Z,410.80
2023-01-19T18:51:10.523Z,500.70
2023-01-19T18:53:37.956Z,522.37
2023-01-19T18:56:05.909Z,438.97
2023-01-19T18:58:33.677Z,241.33
2023-01-19T19:01:01.827Z,155.20
2023-01-19T19:03:29.528Z,120.73
2023-01-19T19:05:57.080Z,108.33
2023-01-19T19:08:24.383Z,88.00
2023-01-19T19:10:51.809Z,81.27
2023-01-19T19:13:21.806Z,62.53
2023-01-19T19:15:49.122Z,63.87
2023-01-19T19:18:16.572Z,77.30
2023-01-19T19:20:43.916Z,75.67
2023-01-19T19:23:11.632Z,77.27
2023-01-19T19:25:38.892Z,77.70
2023-01-19T19:28:06.493Z,65.43
2023-01-19T19:30:35.682Z,53.73
2023-01-19T19:33:02.986Z,57.93
2023-01-19T19:35:30.552Z,62.83
2023-01-19T19:37:58.029Z,59.60
2023-01-19T19:40:26.019Z,84.03
2023-01-19T19:42:53.440Z,93.17
2023-01-19T19:45:20.679Z,76.10
2023-01-19T19:47:47.976Z,87.83
2023-01-19T19:50:15.444Z,88.70
2023-01-19T19:52:43.173Z,106.73
2023-01-19T19:55:11.749Z,96.23
2023-01-19T19:57:39.544Z,76.30
2023-01-19T20:00:07.473Z,69.97
2023-01-19T20:02:34.973Z,66.33
2023-01-19T20:05:02.487Z,63.47
2023-01-19T20:07:30.055Z,64.97
2023-01-19T20:09:57.495Z,64.00
2023-01-19T20:12:24.866Z,62.97
2023-01-19T20:14:52.125Z,66.13
2023-01-19T20:17:20.848Z,98.43
2023-01-19T20:19:49.060Z,88.57
2023-01-19T20:22:16.547Z,106.47
2023-01-19T20:24:43.773Z,89.87
2023-01-19T20:27:11.365Z,120.63
2023-01-19T20:29:38.742Z,134.43
2023-01-19T20:32:06.078Z,134.33
2023-01-19T20:34:37.291Z,118.47
2023-01-19T20:37:06.225Z,134.37
2023-01-19T20:39:35.339Z,132.10
2023-01-19T20:42:02.592Z,129.97
2023-01-19T20:44:30.302Z,155.07
2023-01-19T20:46:57.606Z,182.73
2023-01-19T20:49:25.175Z,181.60
2023-01-19T20:51:52.455Z,158.67
2023-01-19T20:54:20.832Z,188.23
2023-01-19T20:56:48.471Z,189.63
2023-01-19T20:59:15.821Z,188.83
2023-01-19T21:01:43.912Z,172.20
2023-01-19T21:04:11.409Z,170.93
2023-01-19T21:06:38.948Z,170.20
2023-01-19T21:09:07.343Z,179.23
2023-01-19T21:11:34.638Z,186.73
2023-01-19T21:14:02.165Z,196.13
2023-01-19T21:16:31.460Z,179.80
2023-01-19T21:18:58.936Z,170.07
2023-01-19T21:21:31.154Z,164.63
2023-01-19T21:23:59.367Z,139.03
2023-01-19T21:26:29.725Z,146.63
2023-01-19T21:28:57.974Z,148.03
2023-01-19T21:31:27.573Z,146.20
2023-01-19T21:33:55.278Z,146.57
2023-01-19T21:36:22.779Z,156.07
2023-01-19T21:38:51.514Z,167.53
2023-01-19T21:41:18.962Z,159.43
2023-01-19T21:43:46.500Z,173.97
2023-01-19T21:46:29.054Z,167.70
2023-01-19T21:48:57.889Z,154.70
2023-01-19T21:51:25.151Z,157.23
2023-01-19T21:53:52.473Z,192.40
2023-01-19T21:56:19.707Z,198.30
2023-01-19T21:58:47.385Z,192.00
2023-01-19T22:01:15.083Z,197.03
2023-01-19T22:03:42.793Z,191.70
2023-01-19T22:06:11.178Z,156.70
2023-01-19T22:08:38.772Z,145.00
2023-01-19T22:11:07.186Z,152.60
2023-01-19T22:13:35.412Z,163.90
2023-01-19T22:16:08.797Z,152.90
2023-01-19T22:18:36.178Z,159.60
2023-01-19T22:21:10.917Z,159.33
2023-01-19T22:23:38.126Z,130.87
2023-01-19T22:26:05.912Z,143.53
2023-01-19T22:28:33.406Z,155.13
2023-01-19T22:31:07.956Z,155.27
2023-01-19T22:33:35.918Z,165.80
2023-01-19T22:36:16.719Z,158.63
2023-01-19T22:38:44.920Z,174.83
2023-01-19T22:41:17.073Z,178.47
2023-01-19T22:43:44.682Z,169.73
2023-01-19T22:46:12.004Z,150.90
2023-01-19T22:48:40.561Z,157.87
2023-01-19T22:51:08.030Z,144.70
2023-01-19T22:53:35.340Z,146.00
2023-01-19T22:56:10.769Z,133.07
2023-01-19T22:58:40.300Z,114.53
2023-01-19T23:01:08.589Z,109.77
2023-01-19T23:03:36.526Z,110.90
2023-01-19T23:06:04.977Z,100.50
2023-01-19T23:08:32.189Z,107.97
2023-01-19T23:10:59.378Z,103.53
2023-01-19T23:13:26.578Z,104.17
2023-01-19T23:15:53.835Z,112.43
2023-01-19T23:18:21.091Z,104.43
2023-01-19T23:20:48.287Z,110.97
2023-01-19T23:23:15.686Z,110.67
2023-01-19T23:25:42.902Z,117.80
2023-01-19T23:28:10.159Z,112.67
2023-01-19T23:30:37.439Z,124.27
2023-01-19T23:33:04.627Z,120.90
2023-01-19T23:35:31.800Z,107.07
2023-01-19T23:37:59.006Z,117.50
2023-01-19T23:40:26.153Z,120.97
2023-01-19T23:42:55.200Z,124.57
2023-01-19T23:45:22.384Z,129.53
2023-01-19T23:47:49.597Z,118.17
2023-01-19T23:50:16.891Z,104.53
2023-01-19T23:52:44.111Z,100.23
2023-01-19T23:55:11.742Z,91.13
2023-01-19T23:57:39.166Z,91.83
